sensor_id;sensor_type;location;lat;lon;timestamp;temperature;humidity
28959;DHT22;16066;0.000;0.000;2023-12-29T06:01:31;19.30;46.80
28959;DHT22;16066;0.000;0.000;2023-12-29T06:03:56;19.30;46.90
28959;DHT22;16066;0.000;0.000;2023-12-29T06:06:22;19.30;46.70
28959;DHT22;16066;0.000;0.000;2023-12-29T06:08:47;19.30;47.00
28959;DHT22;16066;0.000;0.000;2023-12-29T06:11:16;19.30;47.20
28959;DHT22;16066;0.000;0.000;2023-12-29T06:13:42;19.30;47.00
28959;DHT22;16066;0.000;0.000;2023-12-29T06:16:08;19.30;47.00
28959;DHT22;16066;0.000;0.000;2023-12-29T06:18:33;19.30;47.10
28959;DHT22;16066;0.000;0.000;2023-12-29T06:20:58;19.30;46.90
28959;DHT22;16066;0.000;0.000;2023-12-29T06:23:24;19.30;47.20
28959;DHT22;16066;0.000;0.000;2023-12-29T06:25:51;19.30;47.00
28959;DHT22;16066;0.000;0.000;2023-12-29T06:28:16;19.30;47.00
28959;DHT22;16066;0.000;0.000;2023-12-29T06:30:42;19.30;47.20
28959;DHT22;16066;0.000;0.000;2023-12-29T06:33:07;19.30;47.10
28959;DHT22;16066;0.000;0.000;2023-12-29T06:35:33;19.20;47.00
28959;DHT22;16066;0.000;0.000;2023-12-29T06:37:59;19.20;47.10
28959;DHT22;16066;0.000;0.000;2023-12-29T06:40:24;19.20;47.30
28959;DHT22;16066;0.000;0.000;2023-12-29T06:42:50;19.20;47.30
28959;DHT22;16066;0.000;0.000;2023-12-29T06:45:16;19.30;47.50
28959;DHT22;16066;0.000;0.000;2023-12-29T06:47:41;19.30;47.50
28959;DHT22;16066;0.000;0.000;2023-12-29T06:50:07;19.30;47.50
28959;DHT22;16066;0.000;0.000;2023-12-29T06:52:34;19.40;47.50
28959;DHT22;16066;0.000;0.000;2023-12-29T06:55:01;19.40;47.50
28959;DHT22;16066;0.000;0.000;2023-12-29T06:57:27;19.40;47.40
28959;DHT22;16066;0.000;0.000;2023-12-29T06:59:52;19.50;47.50
28959;DHT22;16066;0.000;0.000;2023-12-29T07:02:18;19.50;47.40
28959;DHT22;16066;0.000;0.000;2023-12-29T07:04:43;19.60;47.40
28959;DHT22;16066;0.000;0.000;2023-12-29T07:07:09;19.70;47.50
28959;DHT22;16066;0.000;0.000;2023-12-29T07:09:38;19.70;47.50
28959;DHT22;16066;0.000;0.000;2023-12-29T07:12:03;19.80;47.70
28959;DHT22;16066;0.000;0.000;2023-12-29T07:14:29;19.90;47.50
28959;DHT22;16066;0.000;0.000;2023-12-29T07:16:54;20.00;47.60
28959;DHT22;16066;0.000;0.000;2023-12-29T07:19:20;20.10;47.80
28959;DHT22;16066;0.000;0.000;2023-12-29T07:21:45;20.10;47.90
28959;DHT22;16066;0.000;0.000;2023-12-29T07:24:11;20.20;47.70
28959;DHT22;16066;0.000;0.000;2023-12-29T07:26:36;20.30;47.80
28959;DHT22;16066;0.000;0.000;2023-12-29T07:29:02;20.30;47.70
28959;DHT22;16066;0.000;0.000;2023-12-29T07:31:27;20.40;47.70
28959;DHT22;16066;0.000;0.000;2023-12-29T07:33:53;20.40;47.60
28959;DHT22;16066;0.000;0.000;2023-12-29T07:36:19;20.50;47.70
28959;DHT22;16066;0.000;0.000;2023-12-29T07:38:44;20.50;47.60
28959;DHT22;16066;0.000;0.000;2023-12-29T07:41:10;20.50;47.50
28959;DHT22;16066;0.000;0.000;2023-12-29T07:43:35;20.60;47.50
28959;DHT22;16066;0.000;0.000;2023-12-29T07:46:01;20.70;47.40
28959;DHT22;16066;0.000;0.000;2023-12-29T07:48:27;20.70;47.40
28959;DHT22;16066;0.000;0.000;2023-12-29T07:50:53;20.80;47.40
28959;DHT22;16066;0.000;0.000;2023-12-29T07:53:18;20.80;47.20
28959;DHT22;16066;0.000;0.000;2023-12-29T07:55:44;20.80;47.20
28959;DHT22;16066;0.000;0.000;2023-12-29T07:58:11;20.90;47.20
28959;DHT22;16066;0.000;0.000;2023-12-29T08:00:37;20.90;47.20
28959;DHT22;16066;0.000;0.000;2023-12-29T08:03:03;20.90;47.10
28959;DHT22;16066;0.000;0.000;2023-12-29T08:05:29;20.90;47.00
28959;DHT22;16066;0.000;0.000;2023-12-29T08:07:54;21.00;47.10
28959;DHT22;16066;0.000;0.000;2023-12-29T08:10:20;21.00;47.00
28959;DHT22;16066;0.000;0.000;2023-12-29T08:12:46;21.00;46.90
28959;DHT22;16066;0.000;0.000;2023-12-29T08:15:11;21.00;46.70
28959;DHT22;16066;0.000;0.000;2023-12-29T08:17:37;21.10;46.70
28959;DHT22;16066;0.000;0.000;2023-12-29T08:20:03;21.00;46.60
28959;DHT22;16066;0.000;0.000;2023-12-29T08:22:32;21.10;46.50
28959;DHT22;16066;0.000;0.000;2023-12-29T08:24:58;21.00;46.50
28959;DHT22;16066;0.000;0.000;2023-12-29T08:27:25;21.10;46.60
28959;DHT22;16066;0.000;0.000;2023-12-29T08:29:53;21.10;46.50
28959;DHT22;16066;0.000;0.000;2023-12-29T08:32:19;21.00;46.30
28959;DHT22;16066;0.000;0.000;2023-12-29T08:34:46;21.10;46.30
28959;DHT22;16066;0.000;0.000;2023-12-29T08:37:12;21.10;46.30
28959;DHT22;16066;0.000;0.000;2023-12-29T08:39:41;21.10;46.40
28959;DHT22;16066;0.000;0.000;2023-12-29T08:42:06;21.00;46.20
28959;DHT22;16066;0.000;0.000;2023-12-29T08:44:32;21.10;46.30
28959;DHT22;16066;0.000;0.000;2023-12-29T08:46:58;21.00;46.20
28959;DHT22;16066;0.000;0.000;2023-12-29T08:49:23;21.00;46.20
28959;DHT22;16066;0.000;0.000;2023-12-29T08:51:49;21.00;46.20
28959;DHT22;16066;0.000;0.000;2023-12-29T08:54:14;21.00;46.20
28959;DHT22;16066;0.000;0.000;2023-12-29T08:56:40;21.00;46.20
28959;DHT22;16066;0.000;0.000;2023-12-29T08:59:05;21.00;46.20
28959;DHT22;16066;0.000;0.000;2023-12-29T09:01:31;21.00;46.20
28959;DHT22;16066;0.000;0.000;2023-12-29T09:03:57;21.00;46.20
28959;DHT22;16066;0.000;0.000;2023-12-29T09:06:22;21.00;46.00
28959;DHT22;16066;0.000;0.000;2023-12-29T09:08:48;21.00;46.00
28959;DHT22;16066;0.000;0.000;2023-12-29T09:11:13;21.00;46.10
28959;DHT22;16066;0.000;0.000;2023-12-29T09:13:39;21.00;46.10
28959;DHT22;16066;0.000;0.000;2023-12-29T09:16:04;21.00;46.10
28959;DHT22;16066;0.000;0.000;2023-12-29T09:18:30;21.00;46.10
28959;DHT22;16066;0.000;0.000;2023-12-29T09:20:56;21.00;46.00
28959;DHT22;16066;0.000;0.000;2023-12-29T09:23:21;21.00;46.00
28959;DHT22;16066;0.000;0.000;2023-12-29T09:25:47;21.00;46.10
28959;DHT22;16066;0.000;0.000;2023-12-29T09:28:12;21.00;46.10
28959;DHT22;16066;0.000;0.000;2023-12-29T09:30:38;21.00;46.00
28959;DHT22;16066;0.000;0.000;2023-12-29T09:33:03;21.00;46.10
28959;DHT22;16066;0.000;0.000;2023-12-29T09:35:29;21.00;46.10
28959;DHT22;16066;0.000;0.000;2023-12-29T09:37:55;21.00;46.10
28959;DHT22;16066;0.000;0.000;2023-12-29T09:40:20;21.00;46.10
28959;DHT22;16066;0.000;0.000;2023-12-29T09:42:47;21.00;46.00
28959;DHT22;16066;0.000;0.000;2023-12-29T09:45:13;21.00;46.10
28959;DHT22;16066;0.000;0.000;2023-12-29T09:47:43;21.00;46.00
28959;DHT22;16066;0.000;0.000;2023-12-29T09:50:13;21.00;46.20
28959;DHT22;16066;0.000;0.000;2023-12-29T09:52:39;21.00;46.00
28959;DHT22;16066;0.000;0.000;2023-12-29T09:55:08;21.00;46.10
28959;DHT22;16066;0.000;0.000;2023-12-29T09:57:35;21.00;46.00
28959;DHT22;16066;0.000;0.000;2023-12-29T10:00:01;21.00;46.10
28959;DHT22;16066;0.000;0.000;2023-12-29T10:02:28;21.00;46.10
28959;DHT22;16066;0.000;0.000;2023-12-29T10:04:53;21.00;46.20
28959;DHT22;16066;0.000;0.000;2023-12-29T10:07:29;21.00;46.10
28959;DHT22;16066;0.000;0.000;2023-12-29T10:09:58;21.00;46.10
28959;DHT22;16066;0.000;0.000;2023-12-29T10:12:24;21.00;46.00
28959;DHT22;16066;0.000;0.000;2023-12-29T10:15:06;21.00;46.20
28959;DHT22;16066;0.000;0.000;2023-12-29T10:25:53;21.00;46.20
28959;DHT22;16066;0.000;0.000;2023-12-29T10:28:18;21.00;46.10
28959;DHT22;16066;0.000;0.000;2023-12-29T10:30:44;21.00;46.20
28959;DHT22;16066;0.000;0.000;2023-12-29T10:33:10;21.00;46.20
28959;DHT22;16066;0.000;0.000;2023-12-29T10:35:36;21.00;46.20
28959;DHT22;16066;0.000;0.000;2023-12-29T10:38:10;21.00;46.20
28959;DHT22;16066;0.000;0.000;2023-12-29T10:40:36;21.00;46.20
28959;DHT22;16066;0.000;0.000;2023-12-29T10:43:02;21.00;46.20
28959;DHT22;16066;0.000;0.000;2023-12-29T10:45:32;21.00;46.20
28959;DHT22;16066;0.000;0.000;2023-12-29T10:47:59;21.00;46.20
28959;DHT22;16066;0.000;0.000;2023-12-29T10:50:25;21.00;46.20
28959;DHT22;16066;0.000;0.000;2023-12-29T10:53:10;21.00;46.20
28959;DHT22;16066;0.000;0.000;2023-12-29T10:55:35;21.00;46.20
28959;DHT22;16066;0.000;0.000;2023-12-29T10:58:01;21.00;46.20
28959;DHT22;16066;0.000;0.000;2023-12-29T11:00:29;21.00;46.20
28959;DHT22;16066;0.000;0.000;2023-12-29T11:02:55;21.00;46.20
28959;DHT22;16066;0.000;0.000;2023-12-29T11:05:25;21.00;46.10
28959;DHT22;16066;0.000;0.000;2023-12-29T11:07:51;21.00;46.20
28959;DHT22;16066;0.000;0.000;2023-12-29T11:10:20;21.00;46.20
28959;DHT22;16066;0.000;0.000;2023-12-29T11:12:47;21.00;46.20
28959;DHT22;16066;0.000;0.000;2023-12-29T11:15:14;21.00;46.20
28959;DHT22;16066;0.000;0.000;2023-12-29T11:17:41;21.00;46.20
28959;DHT22;16066;0.000;0.000;2023-12-29T11:20:15;21.00;46.20
28959;DHT22;16066;0.000;0.000;2023-12-29T11:22:42;21.00;46.20
28959;DHT22;16066;0.000;0.000;2023-12-29T11:25:08;21.00;46.30
28959;DHT22;16066;0.000;0.000;2023-12-29T11:27:35;21.00;46.40
28959;DHT22;16066;0.000;0.000;2023-12-29T11:30:02;21.00;46.50
28959;DHT22;16066;0.000;0.000;2023-12-29T11:35:27;21.00;46.50
28959;DHT22;16066;0.000;0.000;2023-12-29T11:43:08;21.10;47.50
28959;DHT22;16066;0.000;0.000;2023-12-29T11:45:39;21.10;47.50
28959;DHT22;16066;0.000;0.000;2023-12-29T11:48:05;21.10;47.40
28959;DHT22;16066;0.000;0.000;2023-12-29T11:50:32;21.20;47.40
28959;DHT22;16066;0.000;0.000;2023-12-29T11:52:58;21.20;47.60
28959;DHT22;16066;0.000;0.000;2023-12-29T11:55:34;21.20;47.20
28959;DHT22;16066;0.000;0.000;2023-12-29T11:58:01;21.20;47.00
28959;DHT22;16066;0.000;0.000;2023-12-29T12:00:43;21.20;47.00
28959;DHT22;16066;0.000;0.000;2023-12-29T12:03:24;21.20;46.90
28959;DHT22;16066;0.000;0.000;2023-12-29T12:05:51;21.20;46.90
28959;DHT22;16066;0.000;0.000;2023-12-29T12:08:33;21.30;46.90
28959;DHT22;16066;0.000;0.000;2023-12-29T12:14:03;21.30;47.00
28959;DHT22;16066;0.000;0.000;2023-12-29T12:19:13;21.30;47.20
28959;DHT22;16066;0.000;0.000;2023-12-29T12:21:38;21.30;47.20
28959;DHT22;16066;0.000;0.000;2023-12-29T12:24:05;21.30;47.20
28959;DHT22;16066;0.000;0.000;2023-12-29T12:26:32;21.30;46.90
28959;DHT22;16066;0.000;0.000;2023-12-29T12:29:00;21.20;47.00
28959;DHT22;16066;0.000;0.000;2023-12-29T12:31:26;21.30;46.90
28959;DHT22;16066;0.000;0.000;2023-12-29T12:33:55;21.30;46.80
28959;DHT22;16066;0.000;0.000;2023-12-29T12:36:21;21.30;46.60
28959;DHT22;16066;0.000;0.000;2023-12-29T12:38:54;21.30;46.50
28959;DHT22;16066;0.000;0.000;2023-12-29T12:41:24;21.30;46.50
28959;DHT22;16066;0.000;0.000;2023-12-29T12:44:11;21.30;46.60
28959;DHT22;16066;0.000;0.000;2023-12-29T12:46:49;21.30;46.60
28959;DHT22;16066;0.000;0.000;2023-12-29T12:49:17;21.30;46.50
28959;DHT22;16066;0.000;0.000;2023-12-29T12:51:43;21.30;46.60
28959;DHT22;16066;0.000;0.000;2023-12-29T12:54:10;21.40;46.80
28959;DHT22;16066;0.000;0.000;2023-12-29T12:56:35;21.40;46.80
28959;DHT22;16066;0.000;0.000;2023-12-29T12:59:02;21.40;46.70
28959;DHT22;16066;0.000;0.000;2023-12-29T13:01:29;21.40;47.00
28959;DHT22;16066;0.000;0.000;2023-12-29T13:03:56;21.40;47.00
28959;DHT22;16066;0.000;0.000;2023-12-29T13:06:23;21.40;47.00
28959;DHT22;16066;0.000;0.000;2023-12-29T13:08:52;21.40;46.80
28959;DHT22;16066;0.000;0.000;2023-12-29T13:11:21;21.50;47.00
28959;DHT22;16066;0.000;0.000;2023-12-29T13:13:47;21.50;47.00
28959;DHT22;16066;0.000;0.000;2023-12-29T13:16:13;21.50;47.00
28959;DHT22;16066;0.000;0.000;2023-12-29T13:18:39;21.50;47.00
28959;DHT22;16066;0.000;0.000;2023-12-29T13:21:06;21.50;46.90
28959;DHT22;16066;0.000;0.000;2023-12-29T13:23:32;21.50;47.10
28959;DHT22;16066;0.000;0.000;2023-12-29T13:26:09;21.50;47.60
28959;DHT22;16066;0.000;0.000;2023-12-29T13:28:36;21.50;47.00
28959;DHT22;16066;0.000;0.000;2023-12-29T13:31:03;21.50;47.10
28959;DHT22;16066;0.000;0.000;2023-12-29T13:33:41;21.50;47.10
28959;DHT22;16066;0.000;0.000;2023-12-29T13:38:51;21.50;47.00
28959;DHT22;16066;0.000;0.000;2023-12-29T13:41:19;21.50;46.90
28959;DHT22;16066;0.000;0.000;2023-12-29T13:43:46;21.50;46.90
28959;DHT22;16066;0.000;0.000;2023-12-29T13:46:12;21.40;46.90
28959;DHT22;16066;0.000;0.000;2023-12-29T13:48:41;21.40;46.80
28959;DHT22;16066;0.000;0.000;2023-12-29T13:51:08;21.40;46.80
28959;DHT22;16066;0.000;0.000;2023-12-29T13:53:34;21.40;47.10
28959;DHT22;16066;0.000;0.000;2023-12-29T13:56:08;21.40;47.00
28959;DHT22;16066;0.000;0.000;2023-12-29T13:58:34;21.50;46.90
28959;DHT22;16066;0.000;0.000;2023-12-29T14:01:00;21.50;46.90
28959;DHT22;16066;0.000;0.000;2023-12-29T14:03:42;21.50;46.90
28959;DHT22;16066;0.000;0.000;2023-12-29T14:06:12;21.50;46.90
28959;DHT22;16066;0.000;0.000;2023-12-29T14:08:41;21.50;46.80
28959;DHT22;16066;0.000;0.000;2023-12-29T14:11:10;21.50;46.70
28959;DHT22;16066;0.000;0.000;2023-12-29T14:13:35;21.50;46.70
28959;DHT22;16066;0.000;0.000;2023-12-29T14:16:06;21.50;46.70
28959;DHT22;16066;0.000;0.000;2023-12-29T14:21:29;21.50;46.70
28959;DHT22;16066;0.000;0.000;2023-12-29T14:24:15;21.50;46.60
28959;DHT22;16066;0.000;0.000;2023-12-29T14:29:11;21.50;46.60
28959;DHT22;16066;0.000;0.000;2023-12-29T14:31:41;21.50;46.60
28959;DHT22;16066;0.000;0.000;2023-12-29T14:34:07;21.50;46.50
28959;DHT22;16066;0.000;0.000;2023-12-29T14:36:34;21.50;46.50
28959;DHT22;16066;0.000;0.000;2023-12-29T14:38:59;21.50;46.40
28959;DHT22;16066;0.000;0.000;2023-12-29T14:41:25;21.50;46.40
28959;DHT22;16066;0.000;0.000;2023-12-29T14:43:51;21.50;46.50
28959;DHT22;16066;0.000;0.000;2023-12-29T14:46:17;21.50;46.50
28959;DHT22;16066;0.000;0.000;2023-12-29T14:48:43;21.50;46.50
28959;DHT22;16066;0.000;0.000;2023-12-29T14:51:08;21.50;46.40
28959;DHT22;16066;0.000;0.000;2023-12-29T14:53:34;21.50;46.50
28959;DHT22;16066;0.000;0.000;2023-12-29T14:56:00;21.50;46.40
28959;DHT22;16066;0.000;0.000;2023-12-29T14:58:25;21.50;46.30
28959;DHT22;16066;0.000;0.000;2023-12-29T15:00:51;21.50;46.40
28959;DHT22;16066;0.000;0.000;2023-12-29T15:03:16;21.50;46.60
28959;DHT22;16066;0.000;0.000;2023-12-29T15:05:45;21.50;46.40
28959;DHT22;16066;0.000;0.000;2023-12-29T15:08:11;21.50;46.50
28959;DHT22;16066;0.000;0.000;2023-12-29T15:10:37;21.50;46.50
28959;DHT22;16066;0.000;0.000;2023-12-29T15:13:03;21.50;46.50
28959;DHT22;16066;0.000;0.000;2023-12-29T15:15:29;21.50;46.50
28959;DHT22;16066;0.000;0.000;2023-12-29T15:17:54;21.50;46.70
28959;DHT22;16066;0.000;0.000;2023-12-29T15:20:20;21.50;46.80
28959;DHT22;16066;0.000;0.000;2023-12-29T15:22:45;21.50;46.20
28959;DHT22;16066;0.000;0.000;2023-12-29T15:25:11;21.50;46.10
28959;DHT22;16066;0.000;0.000;2023-12-29T15:27:36;21.50;46.70
28959;DHT22;16066;0.000;0.000;2023-12-29T15:30:02;21.50;47.30
28959;DHT22;16066;0.000;0.000;2023-12-29T15:32:28;21.50;47.50
28959;DHT22;16066;0.000;0.000;2023-12-29T15:34:53;21.60;47.40
28959;DHT22;16066;0.000;0.000;2023-12-29T15:37:19;21.60;47.50
28959;DHT22;16066;0.000;0.000;2023-12-29T15:39:44;21.60;47.50
28959;DHT22;16066;0.000;0.000;2023-12-29T15:42:10;21.60;47.80
28959;DHT22;16066;0.000;0.000;2023-12-29T15:44:36;21.70;47.60
28959;DHT22;16066;0.000;0.000;2023-12-29T15:47:01;21.70;47.60
28959;DHT22;16066;0.000;0.000;2023-12-29T15:49:27;21.70;47.60
28959;DHT22;16066;0.000;0.000;2023-12-29T15:51:52;21.70;47.60
28959;DHT22;16066;0.000;0.000;2023-12-29T15:54:18;21.80;47.60
28959;DHT22;16066;0.000;0.000;2023-12-29T15:56:43;21.70;47.60
28959;DHT22;16066;0.000;0.000;2023-12-29T15:59:09;21.70;47.70
28959;DHT22;16066;0.000;0.000;2023-12-29T16:01:34;21.70;47.20
28959;DHT22;16066;0.000;0.000;2023-12-29T16:04:00;21.60;46.80
28959;DHT22;16066;0.000;0.000;2023-12-29T16:06:26;21.60;46.70
28959;DHT22;16066;0.000;0.000;2023-12-29T16:08:52;21.60;46.70
28959;DHT22;16066;0.000;0.000;2023-12-29T16:11:23;21.50;46.60
28959;DHT22;16066;0.000;0.000;2023-12-29T16:13:49;21.50;46.60
28959;DHT22;16066;0.000;0.000;2023-12-29T16:16:15;21.50;46.70
28959;DHT22;16066;0.000;0.000;2023-12-29T16:18:41;21.50;47.60
28959;DHT22;16066;0.000;0.000;2023-12-29T16:21:07;21.50;47.30
28959;DHT22;16066;0.000;0.000;2023-12-29T16:23:32;21.50;47.30
28959;DHT22;16066;0.000;0.000;2023-12-29T16:25:58;21.50;47.30
28959;DHT22;16066;0.000;0.000;2023-12-29T16:28:23;21.60;47.30
28959;DHT22;16066;0.000;0.000;2023-12-29T16:30:49;21.60;47.30
28959;DHT22;16066;0.000;0.000;2023-12-29T16:33:15;21.60;47.30
28959;DHT22;16066;0.000;0.000;2023-12-29T16:35:40;21.60;47.20
28959;DHT22;16066;0.000;0.000;2023-12-29T16:38:06;21.60;47.10
28959;DHT22;16066;0.000;0.000;2023-12-29T16:40:32;21.60;47.00
28959;DHT22;16066;0.000;0.000;2023-12-29T16:42:57;21.60;47.30
28959;DHT22;16066;0.000;0.000;2023-12-29T16:45:23;21.60;47.40
28959;DHT22;16066;0.000;0.000;2023-12-29T16:47:48;21.70;47.50
28959;DHT22;16066;0.000;0.000;2023-12-29T16:50:14;21.70;47.50
28959;DHT22;16066;0.000;0.000;2023-12-29T16:52:39;21.70;47.50
28959;DHT22;16066;0.000;0.000;2023-12-29T16:55:05;21.70;47.50
28959;DHT22;16066;0.000;0.000;2023-12-29T16:57:31;21.70;47.50
28959;DHT22;16066;0.000;0.000;2023-12-29T16:59:57;21.70;47.40
28959;DHT22;16066;0.000;0.000;2023-12-29T17:02:22;21.70;47.40
28959;DHT22;16066;0.000;0.000;2023-12-29T17:04:48;21.70;47.50
28959;DHT22;16066;0.000;0.000;2023-12-29T17:07:14;21.70;47.60
28959;DHT22;16066;0.000;0.000;2023-12-29T17:09:40;21.70;47.70
28959;DHT22;16066;0.000;0.000;2023-12-29T17:12:05;21.70;47.70
28959;DHT22;16066;0.000;0.000;2023-12-29T17:14:31;21.70;47.70
28959;DHT22;16066;0.000;0.000;2023-12-29T17:16:56;21.70;47.80
28959;DHT22;16066;0.000;0.000;2023-12-29T17:19:22;21.70;47.80
28959;DHT22;16066;0.000;0.000;2023-12-29T17:21:51;21.70;47.80
28959;DHT22;16066;0.000;0.000;2023-12-29T17:24:16;21.70;47.80
28959;DHT22;16066;0.000;0.000;2023-12-29T17:26:48;21.70;47.80
28959;DHT22;16066;0.000;0.000;2023-12-29T17:29:14;21.70;47.70
28959;DHT22;16066;0.000;0.000;2023-12-29T17:31:40;21.70;47.90
28959;DHT22;16066;0.000;0.000;2023-12-29T17:34:06;21.70;47.80
28959;DHT22;16066;0.000;0.000;2023-12-29T17:36:32;21.70;47.90
28959;DHT22;16066;0.000;0.000;2023-12-29T17:38:59;21.70;48.00
28959;DHT22;16066;0.000;0.000;2023-12-29T17:41:24;21.70;47.90
28959;DHT22;16066;0.000;0.000;2023-12-29T17:43:52;21.80;48.10
28959;DHT22;16066;0.000;0.000;2023-12-29T17:46:17;21.80;47.90
28959;DHT22;16066;0.000;0.000;2023-12-29T17:48:43;21.80;47.80
28959;DHT22;16066;0.000;0.000;2023-12-29T17:51:09;21.80;47.70
28959;DHT22;16066;0.000;0.000;2023-12-29T17:53:37;21.80;47.60
28959;DHT22;16066;0.000;0.000;2023-12-29T17:56:07;21.80;47.60
28959;DHT22;16066;0.000;0.000;2023-12-29T17:58:32;21.80;47.50
28959;DHT22;16066;0.000;0.000;2023-12-29T18:00:58;21.80;47.60
28959;DHT22;16066;0.000;0.000;2023-12-29T18:03:23;21.80;47.50
28959;DHT22;16066;0.000;0.000;2023-12-29T18:05:49;21.90;47.50
28959;DHT22;16066;0.000;0.000;2023-12-29T18:08:17;21.90;47.30
28959;DHT22;16066;0.000;0.000;2023-12-29T18:10:43;22.00;47.20
28959;DHT22;16066;0.000;0.000;2023-12-29T18:13:11;22.00;47.10
28959;DHT22;16066;0.000;0.000;2023-12-29T18:15:36;22.10;47.00
28959;DHT22;16066;0.000;0.000;2023-12-29T18:18:02;22.10;46.90
28959;DHT22;16066;0.000;0.000;2023-12-29T18:20:28;22.10;46.80
28959;DHT22;16066;0.000;0.000;2023-12-29T18:22:53;22.10;46.70
28959;DHT22;16066;0.000;0.000;2023-12-29T18:25:19;22.10;46.60
28959;DHT22;16066;0.000;0.000;2023-12-29T18:27:44;22.20;46.80
28959;DHT22;16066;0.000;0.000;2023-12-29T18:30:10;22.20;46.70
28959;DHT22;16066;0.000;0.000;2023-12-29T18:32:36;22.10;46.90
28959;DHT22;16066;0.000;0.000;2023-12-29T18:35:01;22.10;46.70
28959;DHT22;16066;0.000;0.000;2023-12-29T18:37:29;22.10;47.50
28959;DHT22;16066;0.000;0.000;2023-12-29T18:39:55;22.10;47.00
28959;DHT22;16066;0.000;0.000;2023-12-29T18:42:21;22.10;47.00
28959;DHT22;16066;0.000;0.000;2023-12-29T18:44:47;22.10;47.10
28959;DHT22;16066;0.000;0.000;2023-12-29T18:47:13;22.10;47.00
28959;DHT22;16066;0.000;0.000;2023-12-29T18:49:38;22.10;47.00
28959;DHT22;16066;0.000;0.000;2023-12-29T18:52:04;22.10;46.90
28959;DHT22;16066;0.000;0.000;2023-12-29T18:54:30;22.20;46.90
28959;DHT22;16066;0.000;0.000;2023-12-29T18:56:59;22.20;46.90
28959;DHT22;16066;0.000;0.000;2023-12-29T18:59:25;22.20;47.00
28959;DHT22;16066;0.000;0.000;2023-12-29T19:01:51;22.20;47.20
28959;DHT22;16066;0.000;0.000;2023-12-29T19:04:17;22.20;47.20
28959;DHT22;16066;0.000;0.000;2023-12-29T19:06:43;22.20;47.20
28959;DHT22;16066;0.000;0.000;2023-12-29T19:09:08;22.20;47.30
28959;DHT22;16066;0.000;0.000;2023-12-29T19:11:37;22.20;47.40
28959;DHT22;16066;0.000;0.000;2023-12-29T19:14:02;22.10;47.10
28959;DHT22;16066;0.000;0.000;2023-12-29T19:16:28;22.10;47.10
28959;DHT22;16066;0.000;0.000;2023-12-29T19:18:53;22.10;47.20
28959;DHT22;16066;0.000;0.000;2023-12-29T19:21:19;22.10;47.30
28959;DHT22;16066;0.000;0.000;2023-12-29T19:23:47;22.00;47.30
28959;DHT22;16066;0.000;0.000;2023-12-29T19:26:20;22.00;47.40
28959;DHT22;16066;0.000;0.000;2023-12-29T19:28:47;22.00;47.50
28959;DHT22;16066;0.000;0.000;2023-12-29T19:31:13;22.00;47.50
28959;DHT22;16066;0.000;0.000;2023-12-29T19:33:38;21.90;47.40
28959;DHT22;16066;0.000;0.000;2023-12-29T19:36:05;21.90;47.40
28959;DHT22;16066;0.000;0.000;2023-12-29T19:38:33;21.90;47.40
28959;DHT22;16066;0.000;0.000;2023-12-29T19:40:59;21.90;47.50
28959;DHT22;16066;0.000;0.000;2023-12-29T19:43:25;21.80;47.40
28959;DHT22;16066;0.000;0.000;2023-12-29T19:45:50;21.80;47.30
28959;DHT22;16066;0.000;0.000;2023-12-29T19:48:16;21.80;47.30
28959;DHT22;16066;0.000;0.000;2023-12-29T19:50:41;21.80;47.40
28959;DHT22;16066;0.000;0.000;2023-12-29T19:53:07;21.70;47.40
28959;DHT22;16066;0.000;0.000;2023-12-29T19:55:33;21.70;47.50
28959;DHT22;16066;0.000;0.000;2023-12-29T19:57:59;21.70;47.60
28959;DHT22;16066;0.000;0.000;2023-12-29T20:00:28;21.70;47.60
28959;DHT22;16066;0.000;0.000;2023-12-29T20:02:53;21.70;47.50
28959;DHT22;16066;0.000;0.000;2023-12-29T20:05:19;21.70;47.60
28959;DHT22;16066;0.000;0.000;2023-12-29T20:07:45;21.70;47.50
28959;DHT22;16066;0.000;0.000;2023-12-29T20:10:10;21.70;47.50
28959;DHT22;16066;0.000;0.000;2023-12-29T20:12:36;21.70;47.60
28959;DHT22;16066;0.000;0.000;2023-12-29T20:15:01;21.70;47.60
28959;DHT22;16066;0.000;0.000;2023-12-29T20:17:27;21.70;47.70
28959;DHT22;16066;0.000;0.000;2023-12-29T20:19:54;21.70;47.60
28959;DHT22;16066;0.000;0.000;2023-12-29T20:22:21;21.70;47.70
28959;DHT22;16066;0.000;0.000;2023-12-29T20:24:49;21.70;47.60
28959;DHT22;16066;0.000;0.000;2023-12-29T20:27:14;21.70;47.60
28959;DHT22;16066;0.000;0.000;2023-12-29T20:29:40;21.70;47.60
28959;DHT22;16066;0.000;0.000;2023-12-29T20:32:05;21.70;47.50
28959;DHT22;16066;0.000;0.000;2023-12-29T20:34:31;21.70;47.50
28959;DHT22;16066;0.000;0.000;2023-12-29T20:36:58;21.80;47.60
28959;DHT22;16066;0.000;0.000;2023-12-29T20:39:23;21.80;47.70
28959;DHT22;16066;0.000;0.000;2023-12-29T20:41:49;21.80;47.70
28959;DHT22;16066;0.000;0.000;2023-12-29T20:44:15;21.80;47.70
28959;DHT22;16066;0.000;0.000;2023-12-29T20:46:40;21.80;47.60
28959;DHT22;16066;0.000;0.000;2023-12-29T20:49:07;21.80;47.60
28959;DHT22;16066;0.000;0.000;2023-12-29T20:51:36;21.80;47.60
28959;DHT22;16066;0.000;0.000;2023-12-29T20:54:01;21.80;47.60
28959;DHT22;16066;0.000;0.000;2023-12-29T20:56:27;21.80;47.60
28959;DHT22;16066;0.000;0.000;2023-12-29T20:58:52;21.80;47.60
28959;DHT22;16066;0.000;0.000;2023-12-29T21:01:18;21.80;47.60
28959;DHT22;16066;0.000;0.000;2023-12-29T21:03:44;21.80;47.60
28959;DHT22;16066;0.000;0.000;2023-12-29T21:06:14;21.80;48.20
28959;DHT22;16066;0.000;0.000;2023-12-29T21:08:40;21.80;47.50
28959;DHT22;16066;0.000;0.000;2023-12-29T21:11:05;21.80;47.70
28959;DHT22;16066;0.000;0.000;2023-12-29T21:13:31;21.80;47.90
28959;DHT22;16066;0.000;0.000;2023-12-29T21:15:57;21.80;48.00
28959;DHT22;16066;0.000;0.000;2023-12-29T21:18:22;21.80;48.00
28959;DHT22;16066;0.000;0.000;2023-12-29T21:20:48;21.80;48.00
28959;DHT22;16066;0.000;0.000;2023-12-29T21:23:13;21.90;48.00
28959;DHT22;16066;0.000;0.000;2023-12-29T21:25:39;21.90;48.00
28959;DHT22;16066;0.000;0.000;2023-12-29T21:28:05;21.90;48.10
28959;DHT22;16066;0.000;0.000;2023-12-29T21:30:30;21.90;48.70
28959;DHT22;16066;0.000;0.000;2023-12-29T21:32:56;22.00;48.40
28959;DHT22;16066;0.000;0.000;2023-12-29T21:35:22;22.00;48.40
28959;DHT22;16066;0.000;0.000;2023-12-29T21:37:48;22.00;48.30
28959;DHT22;16066;0.000;0.000;2023-12-29T21:40:13;22.00;48.30
28959;DHT22;16066;0.000;0.000;2023-12-29T21:42:39;22.00;48.20
28959;DHT22;16066;0.000;0.000;2023-12-29T21:45:06;22.00;48.10
28959;DHT22;16066;0.000;0.000;2023-12-29T21:47:35;22.00;48.20
28959;DHT22;16066;0.000;0.000;2023-12-29T21:50:02;22.00;48.20
28959;DHT22;16066;0.000;0.000;2023-12-29T21:52:29;22.00;47.50
28959;DHT22;16066;0.000;0.000;2023-12-29T21:54:54;22.00;47.00
28959;DHT22;16066;0.000;0.000;2023-12-29T21:57:20;22.00;46.50
28959;DHT22;16066;0.000;0.000;2023-12-29T21:59:46;22.00;46.60
28959;DHT22;16066;0.000;0.000;2023-12-29T22:02:12;22.00;46.90
28959;DHT22;16066;0.000;0.000;2023-12-29T22:04:38;22.00;47.10
28959;DHT22;16066;0.000;0.000;2023-12-29T22:07:03;22.00;47.20
28959;DHT22;16066;0.000;0.000;2023-12-29T22:09:29;22.00;47.40
28959;DHT22;16066;0.000;0.000;2023-12-29T22:11:54;22.00;47.50